National Weather Service Raw Text Product

Displaying AFOS PIL: TAFDSM Received: 2018-12-06 05:21 UTC


045 
FTUS43 KDMX 060521
TAFDSM
TAF
KDSM 060521Z 0606/0706 33010KT P6SM BKN150 BKN250=